createdAt,value
2022-10-12T00:02:20.381Z,13.90
2022-10-12T00:04:52.076Z,13.90
2022-10-12T00:07:22.618Z,13.80
2022-10-12T00:09:53.186Z,13.90
2022-10-12T00:12:23.773Z,14.00
2022-10-12T00:14:54.615Z,13.80
2022-10-12T00:17:25.198Z,13.80
2022-10-12T00:19:55.776Z,14.00
2022-10-12T00:22:26.441Z,13.90
2022-10-12T00:24:57.123Z,13.80
2022-10-12T00:27:27.757Z,14.00
2022-10-12T00:29:58.462Z,13.90
2022-10-12T00:32:29.032Z,13.70
2022-10-12T00:34:59.617Z,13.70
2022-10-12T00:37:30.203Z,13.60
2022-10-12T00:40:00.919Z,13.60
2022-10-12T00:42:31.594Z,13.60
2022-10-12T00:45:02.225Z,13.70
2022-10-12T00:47:35.518Z,13.80
2022-10-12T00:50:09.478Z,13.90
2022-10-12T00:52:43.263Z,13.90
2022-10-12T00:55:16.596Z,14.00
2022-10-12T00:57:48.536Z,13.90
2022-10-12T01:00:20.711Z,13.90
2022-10-12T01:02:54.116Z,13.90
2022-10-12T01:05:25.931Z,13.80
2022-10-12T01:07:56.613Z,13.80
2022-10-12T01:10:27.167Z,13.80
2022-10-12T01:12:57.962Z,14.00
2022-10-12T01:15:31.477Z,13.80
2022-10-12T01:18:05.228Z,13.80
2022-10-12T01:20:42.175Z,13.70
2022-10-12T01:23:46.054Z,13.70
2022-10-12T01:26:55.633Z,13.60
2022-10-12T01:29:34.807Z,13.50
2022-10-12T01:32:08.661Z,13.50
2022-10-12T01:34:43.342Z,13.30
2022-10-12T01:37:17.592Z,13.50
2022-10-12T01:39:52.480Z,13.50
2022-10-12T01:42:25.668Z,13.40
2022-10-12T01:45:06.174Z,13.60
2022-10-12T01:47:39.772Z,13.60
2022-10-12T01:50:14.278Z,13.50
2022-10-12T01:52:48.425Z,13.30
2022-10-12T01:55:25.752Z,13.30
2022-10-12T01:58:21.771Z,13.20
2022-10-12T02:00:57.313Z,13.20
2022-10-12T02:03:30.971Z,13.30
2022-10-12T02:06:04.269Z,13.50
2022-10-12T02:08:37.822Z,13.50
2022-10-12T02:11:11.475Z,13.60
2022-10-12T02:13:45.439Z,13.60
2022-10-12T02:16:19.983Z,13.40
2022-10-12T02:18:53.585Z,13.30
2022-10-12T02:21:27.201Z,13.30
2022-10-12T02:24:00.467Z,13.30
2022-10-12T02:26:32.519Z,13.50
2022-10-12T02:29:05.786Z,13.50
2022-10-12T02:31:39.359Z,13.50
2022-10-12T02:34:14.208Z,13.60
2022-10-12T02:36:47.989Z,13.60
2022-10-12T02:39:21.655Z,13.70
2022-10-12T02:41:54.694Z,13.90
2022-10-12T02:44:29.015Z,13.90
2022-10-12T02:47:02.344Z,13.90
2022-10-12T02:49:35.688Z,13.90
2022-10-12T02:52:07.902Z,14.00
2022-10-12T02:54:39.059Z,14.00
2022-10-12T02:57:09.640Z,13.90
2022-10-12T02:59:40.440Z,14.00
2022-10-12T03:02:11.151Z,13.90
2022-10-12T03:04:42.091Z,14.00
2022-10-12T03:07:12.673Z,14.20
2022-10-12T03:09:43.266Z,14.20
2022-10-12T03:12:13.840Z,14.20
2022-10-12T03:14:44.470Z,14.30
2022-10-12T03:17:15.036Z,14.30
2022-10-12T03:19:45.618Z,14.40
2022-10-12T03:22:16.329Z,14.30
2022-10-12T03:24:46.960Z,14.30
2022-10-12T03:27:17.545Z,14.30
2022-10-12T03:29:48.260Z,14.30
2022-10-12T03:32:19.248Z,14.30
2022-10-12T03:34:49.879Z,14.30
2022-10-12T03:37:20.511Z,14.30
2022-10-12T03:39:51.911Z,14.20
2022-10-12T03:42:22.506Z,14.30
2022-10-12T03:44:53.170Z,14.20
2022-10-12T03:47:23.765Z,14.20
2022-10-12T03:49:54.330Z,14.20
2022-10-12T03:52:24.912Z,14.20
2022-10-12T03:54:55.671Z,14.30
2022-10-12T03:57:26.383Z,14.40
2022-10-12T03:59:56.983Z,14.30
2022-10-12T04:02:27.607Z,14.30
2022-10-12T04:04:59.889Z,14.40
2022-10-12T04:07:30.501Z,14.20
2022-10-12T04:10:01.080Z,14.10
2022-10-12T04:12:31.657Z,14.10
2022-10-12T04:15:02.276Z,14.30
2022-10-12T04:17:32.904Z,14.20
2022-10-12T04:20:03.868Z,14.30
2022-10-12T04:22:34.485Z,14.20
2022-10-12T04:25:05.353Z,14.30
2022-10-12T04:27:36.320Z,14.30
2022-10-12T04:30:09.867Z,14.30
2022-10-12T04:32:40.443Z,14.30
2022-10-12T04:35:11.670Z,14.30
2022-10-12T04:37:42.465Z,14.40
2022-10-12T04:40:13.887Z,14.30
2022-10-12T04:42:44.570Z,14.20
2022-10-12T04:45:15.485Z,14.10
2022-10-12T04:47:46.071Z,14.00
2022-10-12T04:50:17.152Z,13.90
2022-10-12T04:52:47.805Z,13.90
2022-10-12T04:55:18.813Z,13.70
2022-10-12T04:57:50.284Z,13.90
2022-10-12T05:00:21.528Z,13.90
2022-10-12T05:02:52.315Z,14.00
2022-10-12T05:05:22.916Z,14.00
2022-10-12T05:07:53.729Z,14.10
2022-10-12T05:10:24.385Z,14.20
2022-10-12T05:12:55.135Z,14.10
2022-10-12T05:15:26.402Z,14.00
2022-10-12T05:17:56.995Z,14.00
2022-10-12T05:20:28.165Z,14.00
2022-10-12T05:23:00.818Z,13.80
2022-10-12T05:25:31.550Z,13.70
2022-10-12T05:28:02.389Z,13.60
2022-10-12T05:30:33.210Z,13.50
2022-10-12T05:33:04.283Z,13.60
2022-10-12T05:35:35.077Z,13.50
2022-10-12T05:38:05.923Z,13.50
2022-10-12T05:40:36.662Z,13.40
2022-10-12T05:43:07.543Z,13.40
2022-10-12T05:45:38.167Z,13.40
2022-10-12T05:48:09.484Z,13.30
2022-10-12T05:50:40.327Z,13.40
2022-10-12T05:53:10.952Z,13.30
2022-10-12T05:55:41.529Z,13.30
2022-10-12T05:58:12.127Z,13.40
2022-10-12T06:00:42.845Z,13.50
2022-10-12T06:03:14.112Z,13.40
2022-10-12T06:05:46.259Z,13.50
2022-10-12T06:08:17.145Z,13.60
2022-10-12T06:10:50.238Z,13.70
2022-10-12T06:13:21.202Z,13.70
2022-10-12T06:15:52.683Z,13.70
2022-10-12T06:18:23.919Z,13.70
2022-10-12T06:23:46.833Z,13.90
2022-10-12T06:26:18.429Z,13.90
2022-10-12T06:28:49.104Z,13.90
2022-10-12T06:31:19.920Z,14.00
2022-10-12T06:33:51.193Z,14.10
2022-10-12T06:36:22.045Z,14.00
2022-10-12T06:38:53.390Z,14.00
2022-10-12T06:41:23.967Z,14.00
2022-10-12T06:43:54.718Z,14.00
2022-10-12T06:46:25.306Z,14.00
2022-10-12T06:48:55.899Z,14.20
2022-10-12T06:54:02.899Z,14.30
2022-10-12T06:56:33.907Z,14.30
2022-10-12T06:59:04.557Z,14.30
2022-10-12T07:01:35.253Z,14.40
2022-10-12T07:04:06.529Z,14.40
2022-10-12T07:06:37.269Z,14.40
2022-10-12T07:09:08.621Z,14.50
2022-10-12T07:11:39.190Z,14.50
2022-10-12T07:14:10.005Z,14.50
2022-10-12T07:16:40.589Z,14.60
2022-10-12T07:19:11.480Z,14.70
2022-10-12T07:21:42.193Z,14.70
2022-10-12T07:24:14.797Z,14.70
2022-10-12T07:26:45.479Z,14.70
2022-10-12T07:29:16.092Z,14.70
2022-10-12T07:31:51.178Z,14.70
2022-10-12T07:34:19.723Z,14.80
2022-10-12T07:36:59.280Z,14.80
2022-10-12T07:39:24.564Z,14.90
2022-10-12T07:41:56.186Z,14.90
2022-10-12T07:44:27.384Z,15.00
2022-10-12T07:46:58.702Z,15.10
2022-10-12T07:49:29.629Z,15.10
2022-10-12T07:52:00.245Z,15.20
2022-10-12T07:54:33.058Z,15.30
2022-10-12T07:57:04.003Z,15.30
2022-10-12T07:59:34.655Z,15.30
2022-10-12T08:02:05.912Z,15.50
2022-10-12T08:04:36.213Z,15.60
2022-10-12T08:07:07.494Z,15.70
2022-10-12T08:09:38.637Z,15.80
2022-10-12T08:12:11.279Z,15.90
2022-10-12T08:14:42.993Z,16.00
2022-10-12T08:17:14.010Z,16.10
2022-10-12T08:19:45.036Z,16.20
2022-10-12T08:22:16.093Z,16.20
2022-10-12T08:24:47.432Z,16.50
2022-10-12T08:27:18.490Z,16.60
2022-10-12T08:29:49.800Z,16.70
2022-10-12T08:32:20.530Z,17.00
2022-10-12T08:34:51.995Z,17.20
2022-10-12T08:37:23.285Z,17.30
2022-10-12T08:39:54.240Z,17.40
2022-10-12T08:42:34.989Z,17.50
2022-10-12T08:45:33.950Z,17.50
2022-10-12T08:50:50.152Z,17.50
2022-10-12T08:53:25.923Z,17.70
2022-10-12T08:55:59.247Z,17.50
2022-10-12T08:58:33.044Z,17.60
2022-10-12T09:01:11.715Z,17.80
2022-10-12T09:03:46.841Z,18.00
2022-10-12T09:06:20.392Z,18.10
2022-10-12T09:08:59.602Z,18.20
2022-10-12T09:11:47.713Z,18.00
2022-10-12T09:14:21.836Z,18.10
2022-10-12T09:16:55.686Z,17.90
2022-10-12T09:19:29.399Z,17.90
2022-10-12T09:22:01.199Z,17.70
2022-10-12T09:24:35.306Z,17.90
2022-10-12T09:27:24.699Z,18.20
2022-10-12T09:32:54.142Z,18.20
2022-10-12T09:35:25.789Z,18.20
2022-10-12T09:38:03.339Z,18.20
2022-10-12T09:40:34.737Z,18.00
2022-10-12T09:43:07.048Z,18.20
2022-10-12T09:45:39.239Z,18.30
2022-10-12T09:48:19.653Z,18.10
2022-10-12T09:50:55.187Z,18.10
2022-10-12T09:53:36.968Z,18.20
2022-10-12T09:56:13.212Z,18.10
2022-10-12T09:58:47.499Z,18.40
2022-10-12T10:04:18.028Z,19.00
2022-10-12T10:06:49.210Z,18.60
2022-10-12T10:09:38.588Z,18.80
2022-10-12T10:12:19.759Z,19.20
2022-10-12T10:14:51.387Z,19.40
2022-10-12T10:20:06.934Z,19.80
2022-10-12T10:22:37.872Z,20.10
2022-10-12T10:25:14.894Z,20.10
2022-10-12T10:27:45.605Z,19.70
2022-10-12T10:30:33.800Z,19.80
2022-10-12T10:33:11.273Z,20.20
2022-10-12T10:35:42.045Z,20.00
2022-10-12T10:38:16.857Z,20.20
2022-10-12T10:43:33.006Z,20.10
2022-10-12T10:46:06.010Z,19.90
2022-10-12T10:48:41.073Z,20.20
2022-10-12T10:51:11.793Z,20.20
2022-10-12T10:53:48.572Z,20.20
2022-10-12T10:56:22.876Z,20.20
2022-10-12T10:58:56.560Z,20.40
2022-10-12T11:01:30.786Z,20.60
2022-10-12T11:04:04.836Z,20.60
2022-10-12T11:06:39.255Z,20.90
2022-10-12T11:09:14.522Z,21.00
2022-10-12T11:11:47.809Z,21.00
2022-10-12T11:14:21.154Z,21.10
2022-10-12T11:16:54.640Z,21.10
2022-10-12T11:19:30.310Z,21.30
2022-10-12T11:22:03.926Z,21.40
2022-10-12T11:24:38.964Z,21.90
2022-10-12T11:27:13.140Z,22.10
2022-10-12T11:29:44.720Z,22.50
2022-10-12T11:32:22.756Z,22.70
2022-10-12T11:37:35.635Z,23.10
2022-10-12T11:40:10.825Z,23.10
2022-10-12T11:42:43.924Z,23.20
2022-10-12T11:48:03.075Z,23.10
2022-10-12T11:50:37.254Z,23.10
2022-10-12T11:53:13.700Z,23.10
2022-10-12T11:55:57.763Z,22.90
2022-10-12T11:58:55.965Z,22.90
2022-10-12T12:01:25.082Z,23.00
2022-10-12T12:04:40.655Z,23.00
2022-10-12T12:06:58.630Z,23.10
2022-10-12T12:09:50.104Z,23.50
2022-10-12T12:12:23.931Z,23.70
2022-10-12T12:15:22.819Z,23.90
2022-10-12T12:18:15.317Z,24.00
2022-10-12T12:21:07.799Z,24.20
2022-10-12T12:26:23.143Z,24.20
2022-10-12T12:28:56.587Z,24.00
2022-10-12T12:31:31.319Z,23.80
2022-10-12T12:34:08.937Z,24.10
2022-10-12T12:36:44.976Z,24.00
2022-10-12T12:39:25.653Z,24.00
2022-10-12T12:42:02.046Z,23.70
2022-10-12T12:44:42.981Z,23.60
2022-10-12T12:47:44.429Z,23.50
2022-10-12T12:50:01.976Z,23.40
2022-10-12T12:52:35.679Z,23.40
2022-10-12T12:55:50.624Z,23.70
2022-10-12T13:01:37.933Z,23.40
2022-10-12T13:04:38.243Z,23.40
2022-10-12T13:10:31.275Z,23.00
2022-10-12T13:13:14.059Z,22.20
2022-10-12T13:16:02.134Z,22.10
2022-10-12T13:21:45.733Z,22.40
2022-10-12T13:24:20.817Z,22.30
2022-10-12T13:26:54.401Z,21.90
2022-10-12T13:29:30.081Z,21.60
2022-10-12T13:32:03.985Z,21.60
2022-10-12T13:34:38.347Z,21.20
2022-10-12T13:37:14.725Z,20.80
2022-10-12T13:39:47.282Z,20.70
2022-10-12T13:42:21.131Z,20.60
2022-10-12T13:44:52.347Z,20.60
2022-10-12T13:47:25.785Z,20.50
2022-10-12T13:49:56.886Z,20.40
2022-10-12T13:52:32.346Z,20.40
2022-10-12T13:55:03.025Z,20.30
2022-10-12T13:57:36.531Z,20.10
2022-10-12T14:02:58.662Z,19.80
2022-10-12T14:05:32.002Z,19.70
2022-10-12T14:08:06.236Z,19.60
2022-10-12T14:10:39.236Z,19.60
2022-10-12T14:13:11.917Z,19.60
2022-10-12T14:15:43.877Z,19.60
2022-10-12T14:18:34.630Z,19.50
2022-10-12T14:21:19.272Z,19.50
2022-10-12T14:23:52.325Z,19.40
2022-10-12T14:26:32.920Z,19.30
2022-10-12T14:31:56.854Z,19.50
2022-10-12T14:34:40.935Z,19.40
2022-10-12T14:37:31.192Z,19.50
2022-10-12T14:40:04.325Z,19.70
2022-10-12T14:42:37.284Z,19.90
2022-10-12T14:45:23.504Z,19.80
2022-10-12T14:47:54.545Z,20.00
2022-10-12T14:50:26.176Z,20.00
2022-10-12T14:52:59.902Z,20.00
2022-10-12T14:58:14.383Z,20.00
2022-10-12T15:00:46.112Z,19.70
2022-10-12T15:03:18.385Z,19.70
2022-10-12T15:05:49.023Z,19.60
2022-10-12T15:08:19.909Z,19.40
2022-10-12T15:10:52.538Z,19.30
2022-10-12T15:13:23.202Z,19.20
2022-10-12T15:15:55.915Z,19.20
2022-10-12T15:18:26.668Z,19.20
2022-10-12T15:20:58.057Z,19.10
2022-10-12T15:23:30.014Z,19.10
2022-10-12T15:26:01.132Z,19.00
2022-10-12T15:28:33.429Z,18.80
2022-10-12T15:31:17.398Z,18.80
2022-10-12T15:33:38.796Z,18.70
2022-10-12T15:36:12.557Z,18.80
2022-10-12T15:38:43.383Z,18.70
2022-10-12T15:41:19.495Z,18.70
2022-10-12T15:43:50.838Z,18.70
2022-10-12T15:46:22.186Z,18.60
2022-10-12T15:48:53.019Z,18.50
2022-10-12T15:51:26.695Z,18.60
2022-10-12T15:53:58.185Z,18.50
2022-10-12T15:56:29.922Z,18.40
2022-10-12T15:59:01.789Z,18.40
2022-10-12T16:01:36.207Z,18.30
2022-10-12T16:04:09.900Z,18.30
2022-10-12T16:06:41.856Z,18.30
2022-10-12T16:09:12.701Z,18.20
2022-10-12T16:11:44.170Z,18.20
2022-10-12T16:14:17.476Z,18.10
2022-10-12T16:16:49.195Z,18.10
2022-10-12T16:19:22.076Z,18.00
2022-10-12T16:21:53.352Z,17.90
2022-10-12T16:24:24.983Z,17.90
2022-10-12T16:26:55.910Z,17.90
2022-10-12T16:29:27.671Z,17.90
2022-10-12T16:31:58.600Z,17.80
2022-10-12T16:34:32.752Z,17.80
2022-10-12T16:37:03.773Z,17.60
2022-10-12T16:39:35.571Z,17.60
2022-10-12T16:42:07.516Z,17.50
2022-10-12T16:44:39.518Z,17.40
2022-10-12T16:47:10.509Z,17.40
2022-10-12T16:49:41.294Z,17.30
2022-10-12T16:52:12.449Z,17.30
2022-10-12T16:54:47.016Z,17.20
2022-10-12T16:57:18.831Z,17.10
2022-10-12T16:59:50.403Z,16.90
2022-10-12T17:02:22.466Z,16.80
2022-10-12T17:04:56.566Z,16.70
2022-10-12T17:07:28.120Z,16.60
2022-10-12T17:09:58.876Z,16.60
2022-10-12T17:12:29.843Z,16.40
2022-10-12T17:15:03.105Z,16.30
2022-10-12T17:17:33.901Z,16.20
2022-10-12T17:20:05.655Z,16.20
2022-10-12T17:22:37.040Z,16.10
2022-10-12T17:25:09.538Z,16.10
2022-10-12T17:27:40.875Z,16.00
2022-10-12T17:30:14.063Z,16.10
2022-10-12T17:32:44.755Z,16.00
2022-10-12T17:35:15.561Z,16.00
2022-10-12T17:37:46.176Z,16.00
2022-10-12T17:40:17.082Z,16.00
2022-10-12T17:42:47.930Z,15.80
2022-10-12T17:45:19.061Z,15.80
2022-10-12T17:47:51.565Z,15.50
2022-10-12T17:50:22.424Z,15.40
2022-10-12T17:52:53.215Z,15.40
2022-10-12T17:55:46.947Z,15.50
2022-10-12T17:57:56.427Z,15.60
2022-10-12T18:00:27.530Z,15.60
2022-10-12T18:02:58.330Z,15.50
2022-10-12T18:05:29.043Z,15.60
2022-10-12T18:07:59.695Z,15.60
2022-10-12T18:10:30.426Z,15.70
2022-10-12T18:13:01.191Z,15.70
2022-10-12T18:15:31.968Z,15.60
2022-10-12T18:18:02.754Z,15.40
2022-10-12T18:20:33.877Z,15.40
2022-10-12T18:23:05.664Z,15.40
2022-10-12T18:25:38.531Z,15.40
2022-10-12T18:28:10.740Z,15.30
2022-10-12T18:30:48.676Z,15.10
2022-10-12T18:33:20.570Z,15.20
2022-10-12T18:35:53.427Z,15.20
2022-10-12T18:38:25.078Z,15.00
2022-10-12T18:40:57.856Z,14.80
2022-10-12T18:43:29.202Z,14.90
2022-10-12T18:45:59.980Z,14.60
2022-10-12T18:48:31.134Z,14.60
2022-10-12T18:51:12.761Z,14.60
2022-10-12T18:53:44.437Z,14.60
2022-10-12T18:56:15.680Z,14.50
2022-10-12T18:58:47.259Z,14.40
2022-10-12T19:01:20.738Z,14.40
2022-10-12T19:06:33.378Z,14.50
2022-10-12T19:09:09.076Z,14.40
2022-10-12T19:11:42.607Z,14.40
2022-10-12T19:14:18.198Z,14.40
2022-10-12T19:16:50.577Z,14.50
2022-10-12T19:19:21.817Z,14.40
2022-10-12T19:21:54.264Z,14.20
2022-10-12T19:24:25.165Z,14.30
2022-10-12T19:26:55.968Z,14.10
2022-10-12T19:29:27.859Z,14.00
2022-10-12T19:32:00.663Z,14.00
2022-10-12T19:34:32.386Z,13.90
2022-10-12T19:37:03.386Z,13.80
2022-10-12T19:39:37.794Z,13.70
2022-10-12T19:42:08.558Z,13.70
2022-10-12T19:44:40.425Z,13.60
2022-10-12T19:47:11.935Z,13.60
2022-10-12T19:49:45.422Z,13.70
2022-10-12T19:52:16.906Z,13.70
2022-10-12T19:54:49.573Z,13.80
2022-10-12T19:57:20.707Z,13.80
2022-10-12T19:59:52.032Z,13.80
2022-10-12T20:02:23.495Z,13.70
2022-10-12T20:04:57.617Z,13.70
2022-10-12T20:07:28.485Z,13.70
2022-10-12T20:09:59.893Z,13.50
2022-10-12T20:15:09.325Z,13.40
2022-10-12T20:17:41.862Z,13.40
2022-10-12T20:20:13.949Z,13.30
2022-10-12T20:22:44.568Z,13.40
2022-10-12T20:25:15.146Z,13.20
2022-10-12T20:27:47.149Z,13.30
2022-10-12T20:30:17.853Z,13.10
2022-10-12T20:32:53.146Z,13.30
2022-10-12T20:35:20.728Z,13.30
2022-10-12T20:37:51.320Z,13.20
2022-10-12T20:40:22.479Z,13.20
2022-10-12T20:42:53.098Z,13.20
2022-10-12T20:45:23.780Z,13.30
2022-10-12T20:47:54.350Z,13.20
2022-10-12T20:50:25.535Z,13.10
2022-10-12T20:52:56.240Z,13.00
2022-10-12T20:55:27.026Z,13.00
2022-10-12T20:57:57.643Z,13.20
2022-10-12T21:00:28.529Z,13.30
2022-10-12T21:02:59.245Z,13.50
2022-10-12T21:05:29.804Z,13.30
2022-10-12T21:08:00.416Z,13.00
2022-10-12T21:10:31.419Z,12.90
2022-10-12T21:13:02.012Z,13.10
2022-10-12T21:15:32.699Z,13.20
2022-10-12T21:18:03.253Z,13.10
2022-10-12T21:20:33.832Z,13.10
2022-10-12T21:23:04.469Z,13.10
2022-10-12T21:25:35.075Z,13.00
2022-10-12T21:28:05.941Z,12.80
2022-10-12T21:30:36.510Z,12.70
2022-10-12T21:33:07.205Z,12.70
2022-10-12T21:35:37.796Z,12.70
2022-10-12T21:40:49.177Z,12.80
2022-10-12T21:46:00.851Z,13.00
2022-10-12T21:48:32.530Z,12.90
2022-10-12T21:51:04.245Z,12.90
2022-10-12T21:53:36.127Z,12.80
2022-10-12T21:56:10.224Z,12.80
2022-10-12T21:58:40.806Z,13.00
2022-10-12T22:01:14.242Z,13.00
2022-10-12T22:03:45.755Z,13.00
2022-10-12T22:06:18.170Z,12.90
2022-10-12T22:08:52.015Z,13.00
2022-10-12T22:11:23.284Z,13.10
2022-10-12T22:13:54.515Z,13.20
2022-10-12T22:16:25.141Z,13.10
2022-10-12T22:18:57.324Z,12.90
2022-10-12T22:21:28.272Z,12.70
2022-10-12T22:24:00.587Z,12.70
2022-10-12T22:26:31.316Z,12.70
2022-10-12T22:29:02.625Z,12.90
2022-10-12T22:31:33.563Z,13.00
2022-10-12T22:34:04.229Z,12.90
2022-10-12T22:36:35.519Z,12.60
2022-10-12T22:39:06.828Z,12.70
2022-10-12T22:41:37.402Z,12.90
2022-10-12T22:44:08.241Z,12.90
2022-10-12T22:46:38.881Z,12.90
2022-10-12T22:49:09.472Z,12.90
2022-10-12T22:51:40.447Z,13.00
2022-10-12T22:54:12.940Z,12.90
2022-10-12T22:56:43.499Z,12.60
2022-10-12T22:59:16.306Z,12.40
2022-10-12T23:01:46.967Z,12.30
2022-10-12T23:04:17.600Z,12.50
2022-10-12T23:06:48.205Z,12.50
2022-10-12T23:09:18.807Z,12.30
2022-10-12T23:11:51.116Z,12.30
2022-10-12T23:14:21.779Z,12.30
2022-10-12T23:16:52.513Z,12.20
2022-10-12T23:19:23.231Z,12.30
2022-10-12T23:21:53.788Z,12.30
2022-10-12T23:24:24.419Z,12.20
2022-10-12T23:26:55.026Z,12.40
2022-10-12T23:29:25.587Z,12.20
2022-10-12T23:31:56.498Z,12.20
2022-10-12T23:34:27.549Z,12.50
2022-10-12T23:36:58.156Z,12.50
2022-10-12T23:39:28.808Z,12.80
2022-10-12T23:41:59.353Z,12.30
2022-10-12T23:44:30.103Z,12.30
2022-10-12T23:47:00.787Z,12.20
2022-10-12T23:49:31.369Z,12.10
2022-10-12T23:52:01.984Z,12.00
2022-10-12T23:54:32.591Z,12.00
2022-10-12T23:57:03.156Z,12.10
2022-10-12T23:59:33.748Z,11.90
